createdAt,value
2018-04-19T00:01:27.588Z,65.19
2018-04-19T00:03:55.236Z,65.33
2018-04-19T00:06:22.889Z,65.57
2018-04-19T00:08:50.665Z,64.97
2018-04-19T00:11:18.406Z,65.12
2018-04-19T00:13:46.131Z,64.90
2018-04-19T00:16:13.793Z,64.98
2018-04-19T00:18:41.436Z,64.74
2018-04-19T00:21:09.836Z,64.47
2018-04-19T00:23:37.464Z,64.32
2018-04-19T00:26:05.013Z,64.14
2018-04-19T00:28:32.634Z,63.92
2018-04-19T00:31:00.280Z,63.90
2018-04-19T00:33:27.963Z,64.05
2018-04-19T00:35:55.571Z,64.21
2018-04-19T00:38:23.200Z,64.84
2018-04-19T00:40:50.836Z,65.11
2018-04-19T00:43:20.568Z,65.79
2018-04-19T00:45:48.251Z,65.87
2018-04-19T00:48:15.879Z,66.15
2018-04-19T00:50:43.505Z,66.10
2018-04-19T00:53:12.164Z,65.79
2018-04-19T00:55:39.793Z,66.12
2018-04-19T00:58:07.480Z,65.34
2018-04-19T01:00:35.059Z,65.14
2018-04-19T01:03:02.740Z,64.60
2018-04-19T01:05:30.704Z,65.46
2018-04-19T01:07:58.382Z,66.19
2018-04-19T01:10:25.970Z,66.53
2018-04-19T01:12:53.616Z,66.72
2018-04-19T01:17:48.857Z,66.93
2018-04-19T01:20:16.507Z,67.00
2018-04-19T01:22:44.131Z,66.94
2018-04-19T01:25:13.343Z,66.95
2018-04-19T01:27:40.960Z,66.86
2018-04-19T01:30:08.628Z,66.75
2018-04-19T01:32:36.255Z,66.68
2018-04-19T01:35:03.852Z,66.81
2018-04-19T01:37:31.450Z,67.45
2018-04-19T01:39:59.077Z,67.75
2018-04-19T01:42:26.648Z,68.22
2018-04-19T01:44:54.238Z,68.72
2018-04-19T01:47:22.008Z,68.66
2018-04-19T01:49:49.594Z,68.79
2018-04-19T01:52:17.162Z,69.09
2018-04-19T01:54:44.703Z,69.29
2018-04-19T01:57:12.485Z,69.30
2018-04-19T01:59:39.993Z,68.95
2018-04-19T02:02:08.033Z,69.27
2018-04-19T02:04:35.664Z,69.00
2018-04-19T02:07:03.247Z,68.95
2018-04-19T02:09:30.896Z,68.48
2018-04-19T02:11:58.476Z,68.76
2018-04-19T02:14:26.114Z,68.95
2018-04-19T02:16:53.777Z,69.42
2018-04-19T02:19:22.379Z,69.57
2018-04-19T02:21:49.954Z,69.83
2018-04-19T02:24:17.524Z,69.33
2018-04-19T02:26:45.040Z,69.08
2018-04-19T02:29:12.791Z,68.80
2018-04-19T02:31:40.412Z,68.66
2018-04-19T02:34:07.939Z,68.54
2018-04-19T02:36:35.594Z,68.69
2018-04-19T02:39:03.166Z,68.98
2018-04-19T02:41:30.900Z,69.32
2018-04-19T02:43:58.430Z,69.24
2018-04-19T02:46:26.059Z,69.52
2018-04-19T02:48:53.625Z,69.87
2018-04-19T02:51:21.160Z,69.88
2018-04-19T02:53:49.004Z,70.03
2018-04-19T02:56:17.004Z,70.08
2018-04-19T02:58:44.953Z,70.12
2018-04-19T03:01:12.526Z,70.21
2018-04-19T03:03:40.160Z,70.56
2018-04-19T03:06:07.767Z,70.51
2018-04-19T03:08:35.363Z,70.47
2018-04-19T03:11:02.967Z,70.74
2018-04-19T03:13:30.758Z,70.94
2018-04-19T03:15:58.412Z,70.88
2018-04-19T03:18:26.081Z,70.75
2018-04-19T03:20:53.727Z,70.29
2018-04-19T03:23:21.318Z,70.28
2018-04-19T03:25:48.935Z,70.05
2018-04-19T03:28:16.582Z,69.70
2018-04-19T03:30:44.198Z,69.72
2018-04-19T03:33:13.350Z,69.89
2018-04-19T03:35:40.964Z,70.01
2018-04-19T03:38:08.536Z,69.96
2018-04-19T03:40:36.118Z,70.05
2018-04-19T03:43:03.769Z,70.01
2018-04-19T03:45:31.290Z,70.05
2018-04-19T03:47:58.813Z,70.18
2018-04-19T03:50:26.352Z,70.49
2018-04-19T03:52:53.853Z,70.64
2018-04-19T03:55:21.408Z,70.35
2018-04-19T04:00:20.686Z,70.04
2018-04-19T04:02:48.337Z,70.52
2018-04-19T04:05:15.862Z,70.55
2018-04-19T04:07:43.385Z,70.55
2018-04-19T04:10:10.976Z,70.58
2018-04-19T04:12:38.547Z,70.68
2018-04-19T04:15:06.206Z,70.83
2018-04-19T04:17:45.446Z,70.69
2018-04-19T04:20:24.721Z,70.84
2018-04-19T04:23:04.985Z,71.00
2018-04-19T04:25:32.611Z,70.91
2018-04-19T04:28:00.246Z,70.90
2018-04-19T04:30:27.886Z,70.60
2018-04-19T04:32:55.552Z,70.46
2018-04-19T04:35:23.213Z,70.15
2018-04-19T04:37:50.828Z,70.50
2018-04-19T04:40:18.469Z,70.52
2018-04-19T04:42:46.102Z,70.65
2018-04-19T04:45:13.682Z,71.08
2018-04-19T04:47:41.353Z,71.21
2018-04-19T04:50:08.934Z,71.15
2018-04-19T04:52:36.516Z,71.15
2018-04-19T04:55:04.113Z,70.74
2018-04-19T04:57:31.780Z,70.65
2018-04-19T04:59:59.371Z,70.72
2018-04-19T05:02:27.058Z,70.59
2018-04-19T05:04:54.653Z,70.38
2018-04-19T05:07:23.058Z,70.68
2018-04-19T05:09:50.695Z,70.88
2018-04-19T05:12:18.389Z,70.63
2018-04-19T05:14:46.024Z,70.63
2018-04-19T05:17:13.688Z,70.49
2018-04-19T05:19:41.300Z,70.37
2018-04-19T05:22:08.908Z,70.32
2018-04-19T05:24:36.473Z,70.14
2018-04-19T05:27:04.168Z,70.10
2018-04-19T05:29:31.797Z,69.91
2018-04-19T05:31:59.429Z,69.77
2018-04-19T05:34:27.090Z,69.83
2018-04-19T05:36:54.716Z,69.74
2018-04-19T05:39:22.340Z,69.56
2018-04-19T05:41:50.034Z,69.34
2018-04-19T05:44:17.551Z,68.96
2018-04-19T05:46:45.112Z,68.92
2018-04-19T05:49:12.747Z,68.73
2018-04-19T05:51:40.392Z,68.38
2018-04-19T05:54:08.077Z,68.14
2018-04-19T05:56:35.783Z,67.79
2018-04-19T05:59:03.372Z,67.37
2018-04-19T06:01:30.977Z,67.19
2018-04-19T06:03:58.683Z,67.10
2018-04-19T06:06:26.339Z,67.05
2018-04-19T06:08:54.011Z,66.91
2018-04-19T06:11:25.013Z,66.68
2018-04-19T06:13:52.679Z,66.52
2018-04-19T06:16:20.349Z,66.25
2018-04-19T06:18:47.939Z,66.49
2018-04-19T06:21:15.552Z,66.27
2018-04-19T06:23:43.149Z,66.01
2018-04-19T06:26:10.795Z,65.69
2018-04-19T06:28:38.415Z,65.44
2018-04-19T06:31:06.359Z,65.25
2018-04-19T06:33:34.217Z,65.20
2018-04-19T06:36:01.928Z,65.10
2018-04-19T06:38:29.659Z,64.80
2018-04-19T06:40:57.316Z,64.22
2018-04-19T06:43:24.918Z,63.88
2018-04-19T06:45:52.553Z,63.26
2018-04-19T06:48:20.214Z,62.96
2018-04-19T06:50:47.826Z,63.16
2018-04-19T06:53:15.632Z,62.61
2018-04-19T06:55:43.306Z,62.21
2018-04-19T06:58:10.959Z,61.86
2018-04-19T07:00:38.710Z,61.67
2018-04-19T07:03:06.339Z,61.63
2018-04-19T07:05:34.178Z,61.09
2018-04-19T07:08:01.795Z,60.30
2018-04-19T07:10:29.401Z,59.86
2018-04-19T07:12:57.049Z,58.89
2018-04-19T07:15:24.977Z,59.03
2018-04-19T07:17:52.633Z,58.73
2018-04-19T07:20:20.301Z,57.90
2018-04-19T07:22:47.958Z,56.68
2018-04-19T07:25:15.586Z,53.94
2018-04-19T07:27:43.272Z,53.19
2018-04-19T07:30:10.900Z,51.64
2018-04-19T07:32:38.552Z,50.56
2018-04-19T07:35:06.424Z,50.32
2018-04-19T07:37:34.090Z,49.25
2018-04-19T07:40:01.720Z,46.82
2018-04-19T07:42:29.409Z,47.09
2018-04-19T07:44:57.056Z,46.33
2018-04-19T07:47:24.697Z,45.94
2018-04-19T07:49:52.385Z,46.16
2018-04-19T07:52:19.983Z,46.10
2018-04-19T07:54:47.585Z,45.10
2018-04-19T07:57:15.550Z,44.00
2018-04-19T07:59:43.285Z,44.31
2018-04-19T08:02:10.956Z,42.81
2018-04-19T08:04:38.582Z,43.59
2018-04-19T08:07:06.237Z,44.27
2018-04-19T08:09:33.977Z,43.35
2018-04-19T08:12:01.689Z,43.03
2018-04-19T08:14:29.353Z,41.96
2018-04-19T08:16:56.993Z,42.47
2018-04-19T08:19:24.624Z,41.52
2018-04-19T08:21:52.347Z,41.41
2018-04-19T08:24:20.016Z,41.86
2018-04-19T08:26:48.614Z,42.15
2018-04-19T08:29:16.251Z,42.46
2018-04-19T08:31:46.991Z,42.04
2018-04-19T08:34:14.784Z,41.01
2018-04-19T08:36:43.423Z,40.84
2018-04-19T08:39:11.887Z,41.70
2018-04-19T08:41:39.846Z,41.45
2018-04-19T08:44:07.440Z,39.76
2018-04-19T08:46:35.170Z,40.59
2018-04-19T08:49:02.787Z,39.88
2018-04-19T08:51:30.367Z,39.48
2018-04-19T08:53:58.748Z,39.74
2018-04-19T08:56:27.151Z,40.10
2018-04-19T08:58:57.869Z,38.32
2018-04-19T09:01:25.548Z,38.67
2018-04-19T09:03:53.175Z,38.84
2018-04-19T09:06:21.420Z,38.79
2018-04-19T09:08:49.107Z,38.30
2018-04-19T09:11:17.329Z,37.73
2018-04-19T09:13:44.998Z,39.18
2018-04-19T09:16:12.579Z,38.39
2018-04-19T09:18:40.247Z,36.81
2018-04-19T09:21:07.921Z,37.21
2018-04-19T09:23:37.988Z,36.40
2018-04-19T09:26:05.626Z,36.34
2018-04-19T09:28:35.461Z,36.05
2018-04-19T09:31:03.086Z,36.69
2018-04-19T09:33:34.488Z,36.85
2018-04-19T09:36:02.153Z,35.91
2018-04-19T09:38:30.064Z,35.92
2018-04-19T09:40:58.422Z,36.69
2018-04-19T09:43:26.214Z,36.88
2018-04-19T09:45:53.821Z,37.00
2018-04-19T09:48:21.396Z,35.70
2018-04-19T09:50:49.102Z,36.18
2018-04-19T09:53:16.945Z,36.71
2018-04-19T09:55:44.622Z,35.90
2018-04-19T09:58:12.345Z,35.71
2018-04-19T10:00:45.695Z,36.02
2018-04-19T10:03:19.134Z,36.20
2018-04-19T10:05:47.791Z,36.51
2018-04-19T10:08:15.415Z,35.21
2018-04-19T10:10:43.033Z,35.19
2018-04-19T10:13:10.675Z,35.98
2018-04-19T10:15:38.426Z,35.94
2018-04-19T10:18:07.369Z,35.30
2018-04-19T10:20:34.973Z,35.94
2018-04-19T10:23:03.797Z,34.76
2018-04-19T10:25:31.508Z,35.28
2018-04-19T10:27:59.160Z,34.86
2018-04-19T10:30:26.909Z,36.32
2018-04-19T10:32:54.569Z,34.38
2018-04-19T10:35:24.219Z,34.64
2018-04-19T10:37:52.084Z,35.48
2018-04-19T10:40:19.664Z,34.48
2018-04-19T10:42:47.267Z,34.88
2018-04-19T10:45:20.715Z,35.07
2018-04-19T10:47:48.390Z,36.04
2018-04-19T10:50:16.058Z,35.42
2018-04-19T10:52:54.030Z,34.53
2018-04-19T10:55:21.768Z,33.62
2018-04-19T10:57:49.463Z,33.85
2018-04-19T11:00:17.111Z,33.52
2018-04-19T11:02:44.847Z,34.46
2018-04-19T11:05:12.645Z,33.13
2018-04-19T11:07:40.459Z,33.54
2018-04-19T11:10:08.235Z,33.99
2018-04-19T11:12:36.716Z,32.85
2018-04-19T11:15:04.318Z,32.55
2018-04-19T11:17:31.916Z,31.97
2018-04-19T11:19:59.482Z,32.36
2018-04-19T11:22:29.196Z,31.97
2018-04-19T11:24:59.895Z,31.91
2018-04-19T11:27:27.635Z,30.36
2018-04-19T11:29:57.869Z,30.95
2018-04-19T11:32:26.288Z,31.25
2018-04-19T11:34:56.849Z,30.35
2018-04-19T11:37:24.451Z,30.61
2018-04-19T11:39:52.089Z,30.93
2018-04-19T11:42:19.718Z,31.25
2018-04-19T11:44:47.344Z,30.96
2018-04-19T11:47:14.952Z,30.45
2018-04-19T11:49:42.545Z,29.85
2018-04-19T11:52:10.246Z,31.47
2018-04-19T11:54:37.916Z,31.34
2018-04-19T11:57:05.587Z,31.03
2018-04-19T11:59:33.434Z,30.59
2018-04-19T12:02:01.066Z,29.50
2018-04-19T12:04:28.763Z,29.89
2018-04-19T12:06:56.366Z,29.46
2018-04-19T12:09:24.033Z,29.96
2018-04-19T12:11:51.688Z,30.62
2018-04-19T12:14:19.340Z,29.46
2018-04-19T12:16:48.616Z,29.47
2018-04-19T12:19:16.280Z,29.68
2018-04-19T12:21:43.832Z,29.84
2018-04-19T12:24:11.520Z,31.24
2018-04-19T12:26:39.154Z,30.72
2018-04-19T12:29:06.920Z,28.57
2018-04-19T12:31:34.648Z,27.96
2018-04-19T12:34:02.260Z,29.02
2018-04-19T12:36:29.946Z,28.15
2018-04-19T12:38:57.559Z,28.38
2018-04-19T12:41:25.619Z,27.69
2018-04-19T12:43:53.247Z,29.10
2018-04-19T12:46:20.817Z,28.07
2018-04-19T12:48:48.536Z,29.26
2018-04-19T12:51:17.190Z,28.61
2018-04-19T12:53:44.811Z,29.35
2018-04-19T12:56:12.515Z,30.48
2018-04-19T12:58:44.013Z,29.66
2018-04-19T13:01:12.332Z,28.89
2018-04-19T13:03:41.004Z,28.91
2018-04-19T13:06:08.576Z,29.38
2018-04-19T13:08:36.271Z,29.00
2018-04-19T13:11:03.881Z,27.88
2018-04-19T13:13:31.645Z,28.85
2018-04-19T13:18:33.195Z,28.83
2018-04-19T13:21:00.812Z,28.75
2018-04-19T13:23:28.419Z,29.78
2018-04-19T13:25:56.193Z,29.56
2018-04-19T13:28:23.820Z,28.49
2018-04-19T13:30:52.115Z,27.45
2018-04-19T13:33:19.728Z,27.86
2018-04-19T13:35:47.683Z,27.48
2018-04-19T13:38:15.327Z,26.93
2018-04-19T13:40:42.899Z,27.14
2018-04-19T13:43:10.505Z,26.73
2018-04-19T13:45:38.662Z,26.53
2018-04-19T13:48:06.347Z,27.81
2018-04-19T13:50:33.979Z,27.06
2018-04-19T13:53:01.788Z,26.63
2018-04-19T13:55:29.564Z,26.82
2018-04-19T13:57:57.338Z,28.41
2018-04-19T14:00:24.988Z,28.25
2018-04-19T14:02:53.139Z,27.07
2018-04-19T14:05:20.908Z,27.04
2018-04-19T14:08:00.209Z,27.13
2018-04-19T14:10:28.860Z,28.05
2018-04-19T14:12:56.513Z,27.58
2018-04-19T14:15:24.306Z,25.45
2018-04-19T14:17:51.943Z,26.61
2018-04-19T14:20:19.546Z,27.05
2018-04-19T14:22:47.170Z,26.13
2018-04-19T14:25:14.906Z,25.12
2018-04-19T14:27:42.489Z,25.53
2018-04-19T14:30:10.170Z,25.99
2018-04-19T14:32:37.824Z,25.18
2018-04-19T14:35:05.502Z,23.87
2018-04-19T14:37:33.346Z,24.50
2018-04-19T14:40:00.936Z,25.20
2018-04-19T14:42:28.528Z,26.46
2018-04-19T14:44:56.122Z,24.93
2018-04-19T14:47:23.798Z,25.20
2018-04-19T14:49:51.431Z,25.65
2018-04-19T14:52:19.027Z,26.48
2018-04-19T14:54:46.650Z,27.22
2018-04-19T14:57:14.243Z,28.07
2018-04-19T14:59:41.948Z,28.05
2018-04-19T15:02:09.554Z,28.18
2018-04-19T15:04:37.144Z,28.42
2018-04-19T15:07:04.795Z,28.69
2018-04-19T15:09:32.484Z,28.59
2018-04-19T15:12:00.101Z,27.87
2018-04-19T15:14:27.679Z,28.18
2018-04-19T15:16:55.269Z,27.89
2018-04-19T15:19:23.015Z,27.86
2018-04-19T15:21:50.611Z,28.52
2018-04-19T15:24:18.201Z,28.64
2018-04-19T15:26:45.876Z,29.06
2018-04-19T15:29:13.911Z,28.56
2018-04-19T15:31:41.867Z,29.21
2018-04-19T15:34:09.437Z,29.55
2018-04-19T15:36:37.108Z,28.96
2018-04-19T15:39:05.508Z,28.84
2018-04-19T15:41:33.165Z,28.44
2018-04-19T15:44:00.747Z,28.78
2018-04-19T15:46:28.535Z,28.73
2018-04-19T15:48:56.099Z,28.41
2018-04-19T15:51:23.694Z,27.64
2018-04-19T15:53:51.359Z,28.26
2018-04-19T15:56:18.944Z,28.28
2018-04-19T15:58:46.584Z,28.36
2018-04-19T16:01:14.149Z,28.42
2018-04-19T16:03:46.138Z,28.73
2018-04-19T16:06:13.809Z,29.01
2018-04-19T16:08:41.402Z,29.10
2018-04-19T16:11:11.288Z,29.21
2018-04-19T16:13:38.971Z,29.20
2018-04-19T16:16:06.635Z,29.22
2018-04-19T16:18:34.327Z,29.26
2018-04-19T16:21:01.914Z,29.10
2018-04-19T16:23:29.478Z,28.99
2018-04-19T16:25:57.101Z,29.37
2018-04-19T16:28:25.280Z,29.81
2018-04-19T16:30:52.880Z,30.23
2018-04-19T16:33:21.344Z,30.45
2018-04-19T16:35:48.922Z,30.32
2018-04-19T16:38:16.526Z,30.27
2018-04-19T16:40:44.156Z,30.45
2018-04-19T16:43:12.010Z,30.64
2018-04-19T16:45:39.808Z,30.92
2018-04-19T16:48:07.393Z,31.41
2018-04-19T16:50:34.991Z,32.18
2018-04-19T16:53:02.738Z,32.51
2018-04-19T16:55:30.600Z,32.78
2018-04-19T16:57:58.795Z,32.89
2018-04-19T17:00:26.429Z,33.90
2018-04-19T17:02:54.004Z,34.23
2018-04-19T17:05:23.166Z,35.53
2018-04-19T17:07:51.224Z,37.07
2018-04-19T17:10:18.964Z,38.14
2018-04-19T17:12:46.618Z,38.51
2018-04-19T17:15:14.355Z,39.23
2018-04-19T17:17:41.920Z,40.06
2018-04-19T17:20:09.476Z,40.02
2018-04-19T17:22:37.014Z,40.43
2018-04-19T17:27:36.386Z,41.25
2018-04-19T17:30:04.101Z,41.17
2018-04-19T17:32:32.039Z,41.41
2018-04-19T17:34:59.651Z,41.58
2018-04-19T17:37:27.424Z,42.04
2018-04-19T17:39:55.460Z,42.45
2018-04-19T17:42:23.100Z,42.74
2018-04-19T17:44:50.743Z,43.06
2018-04-19T17:47:18.348Z,43.29
2018-04-19T17:49:46.178Z,43.69
2018-04-19T17:52:13.797Z,44.28
2018-04-19T17:54:41.554Z,45.09
2018-04-19T17:57:09.341Z,45.47
2018-04-19T17:59:37.047Z,45.72
2018-04-19T18:02:05.069Z,46.51
2018-04-19T18:04:32.765Z,47.30
2018-04-19T18:07:00.477Z,47.57
2018-04-19T18:09:28.215Z,47.42
2018-04-19T18:11:55.936Z,47.76
2018-04-19T18:14:23.800Z,48.18
2018-04-19T18:16:51.527Z,48.12
2018-04-19T18:19:19.508Z,48.66
2018-04-19T18:21:47.448Z,49.63
2018-04-19T18:24:15.095Z,50.26
2018-04-19T18:26:42.715Z,50.57
2018-04-19T18:29:11.971Z,51.12
2018-04-19T18:31:39.736Z,51.00
2018-04-19T18:34:07.458Z,51.63
2018-04-19T18:36:35.153Z,51.77
2018-04-19T18:39:02.793Z,51.86
2018-04-19T18:41:30.503Z,51.94
2018-04-19T18:43:58.741Z,52.72
2018-04-19T18:46:26.419Z,53.13
2018-04-19T18:48:54.180Z,53.09
2018-04-19T18:51:22.124Z,53.43
2018-04-19T18:53:49.790Z,52.51
2018-04-19T18:56:17.388Z,52.69
2018-04-19T18:58:45.277Z,52.77
2018-04-19T19:01:13.048Z,52.65
2018-04-19T19:03:40.752Z,52.77
2018-04-19T19:06:08.440Z,52.73
2018-04-19T19:08:36.199Z,52.92
2018-04-19T19:11:04.004Z,51.88
2018-04-19T19:13:31.842Z,52.02
2018-04-19T19:16:14.438Z,52.53
2018-04-19T19:18:53.932Z,53.15
2018-04-19T19:21:21.620Z,52.43
2018-04-19T19:23:49.515Z,52.45
2018-04-19T19:26:17.290Z,52.20
2018-04-19T19:28:44.931Z,52.24
2018-04-19T19:31:12.696Z,52.25
2018-04-19T19:33:40.388Z,52.46
2018-04-19T19:36:08.139Z,52.97
2018-04-19T19:38:36.108Z,52.57
2018-04-19T19:41:03.811Z,52.33
2018-04-19T19:43:32.695Z,51.92
2018-04-19T19:46:00.383Z,51.82
2018-04-19T19:48:29.361Z,51.82
2018-04-19T19:50:57.080Z,51.90
2018-04-19T19:53:24.706Z,52.00
2018-04-19T19:55:52.615Z,52.42
2018-04-19T19:58:20.500Z,52.45
2018-04-19T20:00:48.286Z,52.52
2018-04-19T20:05:54.950Z,53.34
2018-04-19T20:08:22.781Z,53.42
2018-04-19T20:10:50.408Z,53.61
2018-04-19T20:13:18.056Z,54.09
2018-04-19T20:15:45.943Z,53.73
2018-04-19T20:18:13.557Z,53.67
2018-04-19T20:20:41.200Z,54.06
2018-04-19T20:23:09.180Z,54.35
2018-04-19T20:25:36.871Z,54.65
2018-04-19T20:28:04.600Z,54.85
2018-04-19T20:30:32.357Z,55.04
2018-04-19T20:33:00.759Z,56.02
2018-04-19T20:35:28.356Z,56.69
2018-04-19T20:37:55.983Z,57.28
2018-04-19T20:40:23.699Z,57.20
2018-04-19T20:42:51.409Z,56.95
2018-04-19T20:45:20.763Z,56.86
2018-04-19T20:47:48.436Z,56.52
2018-04-19T20:50:16.153Z,56.59
2018-04-19T20:52:43.761Z,57.30
2018-04-19T20:55:11.533Z,58.17
2018-04-19T20:57:39.126Z,58.47
2018-04-19T21:00:06.787Z,57.71
2018-04-19T21:02:34.497Z,57.67
2018-04-19T21:05:02.149Z,57.85
2018-04-19T21:07:29.901Z,58.17
2018-04-19T21:09:57.586Z,58.06
2018-04-19T21:12:25.568Z,57.70
2018-04-19T21:14:53.214Z,58.42
2018-04-19T21:17:21.582Z,58.21
2018-04-19T21:19:49.272Z,57.82
2018-04-19T21:22:16.930Z,57.69
2018-04-19T21:24:44.606Z,58.03
2018-04-19T21:27:12.173Z,58.29
2018-04-19T21:29:39.776Z,58.18
2018-04-19T21:32:07.464Z,58.10
2018-04-19T21:34:35.120Z,58.32
2018-04-19T21:37:02.736Z,58.20
2018-04-19T21:39:30.439Z,58.77
2018-04-19T21:41:58.103Z,59.03
2018-04-19T21:44:25.694Z,58.96
2018-04-19T21:46:53.312Z,60.00
2018-04-19T21:49:21.036Z,60.68
2018-04-19T21:51:48.658Z,60.34
2018-04-19T21:54:16.207Z,60.24
2018-04-19T21:56:43.888Z,59.74
2018-04-19T21:59:11.445Z,60.22
2018-04-19T22:01:38.973Z,60.10
2018-04-19T22:04:06.515Z,60.41
2018-04-19T22:06:34.184Z,60.12
2018-04-19T22:09:01.705Z,60.54
2018-04-19T22:11:29.281Z,60.83
2018-04-19T22:13:56.873Z,60.67
2018-04-19T22:16:24.439Z,60.36
2018-04-19T22:18:52.000Z,60.26
2018-04-19T22:21:19.862Z,60.78
2018-04-19T22:23:47.543Z,60.80
2018-04-19T22:26:15.115Z,60.83
2018-04-19T22:28:42.828Z,61.30
2018-04-19T22:31:10.443Z,61.40
2018-04-19T22:33:38.104Z,61.35
2018-04-19T22:36:05.738Z,61.34
2018-04-19T22:38:33.397Z,61.48
2018-04-19T22:41:01.106Z,61.24
2018-04-19T22:43:28.783Z,61.77
2018-04-19T22:45:56.501Z,61.58
2018-04-19T22:48:24.165Z,61.77
2018-04-19T22:50:51.809Z,62.04
2018-04-19T22:53:19.474Z,62.02
2018-04-19T22:55:47.044Z,62.09
2018-04-19T22:58:14.561Z,61.94
2018-04-19T23:00:42.060Z,61.99
2018-04-19T23:03:10.181Z,61.95
2018-04-19T23:05:37.848Z,62.08
2018-04-19T23:08:05.451Z,62.64
2018-04-19T23:10:33.113Z,63.37
2018-04-19T23:13:00.709Z,63.54
2018-04-19T23:15:28.287Z,63.95
2018-04-19T23:17:55.949Z,63.56
2018-04-19T23:20:23.526Z,63.29
2018-04-19T23:22:51.052Z,63.11
2018-04-19T23:25:18.685Z,63.08
2018-04-19T23:27:46.296Z,63.12
2018-04-19T23:30:13.872Z,63.32
2018-04-19T23:32:41.526Z,63.59
2018-04-19T23:35:09.790Z,63.99
2018-04-19T23:37:37.502Z,64.06
2018-04-19T23:40:04.981Z,64.06
2018-04-19T23:42:32.545Z,64.26
2018-04-19T23:45:00.060Z,64.11
2018-04-19T23:47:27.866Z,63.99
2018-04-19T23:49:55.524Z,64.13
2018-04-19T23:52:23.148Z,64.38
2018-04-19T23:54:50.749Z,64.64
2018-04-19T23:57:18.428Z,64.35
2018-04-19T23:59:46.054Z,64.91
